Time;durP1;ratioP1;P1;durP2;ratioP2;P2;SDS_P1;SDS_P2;PMS_P1;PMS_P2;Temp;Humidity;BMP_temperature;BMP_pressure;BME280_temperature;BME280_humidity;BME280_pressure;Samples;Min_cycle;Max_cycle;Signal;HPM_P1;HPM_P2
2024/01/30 00:02:13;;;;;;;10.43;5.63;;;;;;;-2.96;71.51;96613.81;5006033;28;20030;-70
2024/01/30 00:04:39;;;;;;;9.45;5.40;;;;;;;-2.89;71.98;96638.41;5008643;28;20052;-70
2024/01/30 00:07:04;;;;;;;10.65;5.95;;;;;;;-2.90;72.34;96641.78;5009929;28;20029;-70
2024/01/30 00:09:30;;;;;;;9.45;5.97;;;;;;;-2.92;72.18;96634.16;5029078;28;20406;-69
2024/01/30 00:11:55;;;;;;;9.60;5.78;;;;;;;-2.65;72.01;96652.75;5030495;28;20028;-69
2024/01/30 00:14:20;;;;;;;10.75;6.47;;;;;;;-2.71;71.06;96643.44;5019833;28;20041;-69
2024/01/30 00:16:46;;;;;;;14.20;6.93;;;;;;;-2.79;71.85;96629.88;5021498;28;20021;-69
2024/01/30 00:19:11;;;;;;;11.50;5.78;;;;;;;-2.64;71.20;96653.63;5008687;28;20048;-69
2024/01/30 00:21:37;;;;;;;8.25;5.20;;;;;;;-2.68;71.36;96644.28;5010506;28;20053;-69
2024/01/30 00:24:02;;;;;;;8.93;5.25;;;;;;;-2.65;71.48;96655.28;5026241;28;20475;-69
2024/01/30 00:26:28;;;;;;;7.55;4.90;;;;;;;-2.84;71.32;96648.53;5011370;28;20030;-70
2024/01/30 00:28:53;;;;;;;6.40;4.25;;;;;;;-2.91;71.89;96635.00;5008703;28;20256;-69
2024/01/30 00:31:19;;;;;;;8.95;4.50;;;;;;;-2.83;72.29;96660.44;5008222;28;20427;-69
2024/01/30 00:33:44;;;;;;;9.20;5.22;;;;;;;-2.81;72.32;96658.75;5028500;28;20018;-70
2024/01/30 00:36:10;;;;;;;7.43;4.82;;;;;;;-2.88;72.25;96655.34;5004043;28;20034;-69
2024/01/30 00:38:36;;;;;;;7.78;4.20;;;;;;;-2.91;71.60;96660.44;4975305;28;20083;-70
2024/01/30 00:41:04;;;;;;;9.48;5.18;;;;;;;-2.86;70.89;96658.75;4987309;28;20044;-69
2024/01/30 00:43:31;;;;;;;7.65;4.60;;;;;;;-2.83;71.13;96658.72;5004679;28;20029;-69
2024/01/30 00:45:56;;;;;;;6.93;4.50;;;;;;;-2.93;71.40;96651.94;5016095;28;20041;-69
2024/01/30 00:48:21;;;;;;;8.18;4.75;;;;;;;-2.88;71.33;96657.88;5025266;28;20038;-69
2024/01/30 00:50:47;;;;;;;8.20;4.63;;;;;;;-3.15;71.63;96610.44;5025334;28;20030;-69
2024/01/30 00:53:12;;;;;;;9.32;4.88;;;;;;;-3.12;71.86;96655.34;5007365;28;20053;-69
2024/01/30 00:55:38;;;;;;;8.30;4.97;;;;;;;-3.27;72.55;96648.56;4996605;28;20124;-69
2024/01/30 00:58:03;;;;;;;7.90;4.70;;;;;;;-3.12;72.49;96647.72;4996514;28;20435;-69
2024/01/30 01:00:29;;;;;;;8.85;5.45;;;;;;;-3.08;72.42;96652.81;5030458;28;20029;-69
2024/01/30 01:02:55;;;;;;;8.85;4.68;;;;;;;-3.14;71.75;96627.41;4999780;28;20021;-69
2024/01/30 01:05:20;;;;;;;6.57;4.40;;;;;;;-3.09;72.12;96648.59;5016083;28;20048;-69
2024/01/30 01:07:47;;;;;;;10.05;5.35;;;;;;;-3.40;72.74;96640.09;4997087;28;20029;-69
2024/01/30 01:10:13;;;;;;;8.73;4.45;;;;;;;-3.11;72.57;96654.53;5016174;28;20037;-69
2024/01/30 01:12:39;;;;;;;10.43;4.93;;;;;;;-3.09;72.29;96647.72;5015040;28;20064;-69
2024/01/30 01:15:05;;;;;;;8.15;4.82;;;;;;;-3.14;72.21;96655.38;5033635;28;20030;-69
2024/01/30 01:17:31;;;;;;;8.48;4.50;;;;;;;-3.39;72.37;96627.41;5014189;28;20064;-69
2024/01/30 01:19:57;;;;;;;13.00;5.68;;;;;;;-3.32;72.27;96652.81;5031647;28;20461;-69
2024/01/30 01:22:22;;;;;;;9.98;5.70;;;;;;;-3.46;73.05;96651.09;5015704;28;20026;-68
2024/01/30 01:24:48;;;;;;;10.00;5.18;;;;;;;-3.39;73.08;96650.25;5033319;28;20037;-69
2024/01/30 01:27:13;;;;;;;7.93;4.38;;;;;;;-3.73;72.99;96595.16;5031604;28;20029;-69
2024/01/30 01:29:39;;;;;;;7.35;4.60;;;;;;;-3.43;72.32;96640.94;5013422;28;20395;-69
2024/01/30 01:32:04;;;;;;;6.80;4.75;;;;;;;-3.34;72.12;96660.44;5010230;28;20033;-69
2024/01/30 01:34:30;;;;;;;7.97;4.25;;;;;;;-3.42;71.82;96651.97;4973111;28;20061;-69
2024/01/30 01:36:55;;;;;;;7.65;4.55;;;;;;;-3.46;72.54;96645.16;4992134;28;20038;-69
2024/01/30 01:39:22;;;;;;;6.70;4.20;;;;;;;-3.37;72.80;96660.44;4989520;28;20041;-69
2024/01/30 01:41:48;;;;;;;8.20;4.65;;;;;;;-3.41;73.05;96656.19;4974131;28;20449;-69
2024/01/30 01:44:13;;;;;;;7.03;4.15;;;;;;;-3.31;73.02;96663.00;4977277;28;20038;-69
2024/01/30 01:46:38;;;;;;;8.32;4.38;;;;;;;-3.30;72.70;96663.84;4993429;28;20500;-69
2024/01/30 01:49:05;;;;;;;6.07;3.83;;;;;;;-3.54;72.76;96647.69;4990333;28;20030;-69
2024/01/30 01:51:31;;;;;;;6.65;3.65;;;;;;;-3.46;73.16;96656.19;4975604;28;20037;-70
2024/01/30 01:53:57;;;;;;;7.10;4.57;;;;;;;-3.26;73.15;96646.06;4990729;28;20035;-69
2024/01/30 01:56:23;;;;;;;6.97;4.05;;;;;;;-3.44;73.02;96653.66;4992134;28;20034;-69
2024/01/30 01:58:48;;;;;;;8.05;4.68;;;;;;;-3.49;73.32;96655.34;4983528;28;20201;-69
2024/01/30 02:01:13;;;;;;;6.95;4.22;;;;;;;-3.46;73.86;96640.09;4956457;28;20031;-69
2024/01/30 02:03:39;;;;;;;7.30;4.40;;;;;;;-3.49;73.62;96629.91;4957002;28;20065;-69
2024/01/30 02:06:04;;;;;;;6.78;3.88;;;;;;;-3.37;72.99;96650.28;4972606;28;20484;-69
2024/01/30 02:08:30;;;;;;;6.07;3.83;;;;;;;-3.39;73.45;96655.34;4956046;28;20439;-68
2024/01/30 02:10:55;;;;;;;8.02;5.22;;;;;;;-3.15;72.66;96662.16;4972684;28;20035;-69
2024/01/30 02:13:21;;;;;;;8.13;4.88;;;;;;;-3.30;72.11;96661.28;4955940;28;20093;-69
2024/01/30 02:15:50;;;;;;;7.05;4.35;;;;;;;-3.31;72.31;96670.63;4972448;28;20547;-69
2024/01/30 02:18:16;;;;;;;6.95;4.32;;;;;;;-3.12;72.71;96660.44;4979927;28;20113;-69
2024/01/30 02:20:41;;;;;;;7.45;3.75;;;;;;;-2.93;72.86;96665.50;4991775;28;20042;-69
2024/01/30 02:23:07;;;;;;;7.40;4.05;;;;;;;-3.02;73.88;96662.97;4991244;28;20504;-69
2024/01/30 02:25:44;;;;;;;8.85;4.35;;;;;;;-2.99;73.41;96657.03;4991615;28;20045;-69
2024/01/30 02:28:12;;;;;;;8.27;4.70;;;;;;;-3.07;73.42;96633.31;4990984;28;20543;-69
2024/01/30 02:30:44;;;;;;;6.38;4.38;;;;;;;-3.07;73.73;96638.41;4983939;28;20042;-69
2024/01/30 02:33:09;;;;;;;6.85;4.57;;;;;;;-3.09;74.18;96655.34;4975293;28;20109;-69
2024/01/30 02:35:35;;;;;;;6.85;3.97;;;;;;;-2.87;74.19;96643.47;5022657;28;20430;-69
2024/01/30 02:38:00;;;;;;;6.05;4.00;;;;;;;-2.59;73.93;96656.97;5031949;28;20490;-69
2024/01/30 02:40:26;;;;;;;5.50;3.80;;;;;;;-2.57;73.24;96650.19;5012964;28;20060;-69
2024/01/30 02:42:51;;;;;;;7.88;3.75;;;;;;;-2.57;73.66;96640.84;5013902;28;20026;-69
2024/01/30 02:45:17;;;;;;;8.38;5.15;;;;;;;-2.51;73.33;96645.09;5026804;28;20029;-69
2024/01/30 02:47:42;;;;;;;15.25;6.50;;;;;;;-2.42;73.53;96662.03;4994304;28;20537;-69
2024/01/30 02:50:08;;;;;;;12.20;6.18;;;;;;;-2.57;73.29;96609.47;5030897;28;20036;-69
2024/01/30 02:52:34;;;;;;;11.82;5.85;;;;;;;-2.11;72.91;96656.00;4997429;28;20036;-69
2024/01/30 02:54:59;;;;;;;5.72;3.83;;;;;;;-2.11;71.58;96665.34;5001370;28;20100;-69
2024/01/30 02:57:24;;;;;;;6.60;3.72;;;;;;;-2.14;71.19;96660.28;4994275;28;20069;-69
2024/01/30 02:59:50;;;;;;;6.30;3.85;;;;;;;-2.19;71.57;96651.78;5024243;28;20415;-69
2024/01/30 03:02:15;;;;;;;6.88;4.07;;;;;;;-2.18;71.83;96628.00;5013071;28;20045;-69
2024/01/30 03:04:41;;;;;;;4.97;3.15;;;;;;;-2.00;72.55;96655.97;5014645;28;20396;-69
2024/01/30 03:07:07;;;;;;;5.80;4.10;;;;;;;-2.10;72.46;96639.03;5025562;28;20134;-69
2024/01/30 03:09:33;;;;;;;5.97;3.20;;;;;;;-2.07;72.33;96632.19;5012845;28;20037;-69
2024/01/30 03:11:58;;;;;;;5.32;3.53;;;;;;;-1.84;72.01;96649.94;5011140;28;20037;-69
2024/01/30 03:14:23;;;;;;;5.80;3.40;;;;;;;-1.93;72.58;96651.66;5011199;28;20034;-69
2024/01/30 03:16:49;;;;;;;5.40;3.47;;;;;;;-2.01;72.24;96641.50;5028983;28;20025;-69
2024/01/30 03:19:14;;;;;;;5.22;3.47;;;;;;;-2.02;71.61;96652.56;5013485;28;20456;-69
2024/01/30 03:21:40;;;;;;;6.35;4.00;;;;;;;-2.02;71.30;96655.13;5031115;28;20028;-69
2024/01/30 03:24:05;;;;;;;6.00;3.70;;;;;;;-2.04;70.39;96647.47;4997332;28;20045;-69
2024/01/30 03:26:31;;;;;;;5.28;3.20;;;;;;;-1.94;70.21;96634.72;5011359;28;20034;-69
2024/01/30 03:28:56;;;;;;;5.80;3.20;;;;;;;-1.86;70.15;96641.44;4993975;28;20041;-69
2024/01/30 03:31:22;;;;;;;5.00;3.63;;;;;;;-1.75;69.66;96632.91;4993529;28;20036;-69
2024/01/30 03:33:47;;;;;;;6.72;3.58;;;;;;;-1.70;70.37;96651.53;5020843;28;20487;-69
2024/01/30 03:36:12;;;;;;;5.50;3.40;;;;;;;-1.96;70.34;96618.56;5013384;28;20034;-69
2024/01/30 03:38:38;;;;;;;6.20;3.80;;;;;;;-1.85;70.61;96643.13;5030736;28;20036;-69
2024/01/30 03:41:07;;;;;;;8.40;3.83;;;;;;;-1.64;69.14;96626.88;5008707;28;20037;-69
2024/01/30 03:43:32;;;;;;;6.90;3.83;;;;;;;-1.64;69.39;96633.69;4976278;28;20109;-69
2024/01/30 03:45:58;;;;;;;6.18;3.50;;;;;;;-1.58;69.07;96638.75;4992299;28;20486;-69
2024/01/30 03:48:23;;;;;;;5.95;3.30;;;;;;;-1.60;69.03;96630.25;5022553;28;20028;-69
2024/01/30 03:50:48;;;;;;;5.40;3.55;;;;;;;-1.68;69.93;96629.47;5031164;28;20048;-69
2024/01/30 03:53:14;;;;;;;6.32;3.90;;;;;;;-1.60;69.37;96627.72;5030742;28;20025;-69
2024/01/30 03:55:39;;;;;;;5.40;3.55;;;;;;;-1.76;69.44;96621.00;5030737;28;20046;-69
2024/01/30 03:58:05;;;;;;;7.05;4.18;;;;;;;-1.76;68.77;96619.31;4980880;28;20034;-69
2024/01/30 04:00:30;;;;;;;5.65;3.72;;;;;;;-1.94;66.68;96622.81;5011241;28;20403;-69
2024/01/30 04:02:55;;;;;;;7.15;4.00;;;;;;;-2.04;67.94;96622.00;4977140;28;20045;-69
2024/01/30 04:05:21;;;;;;;6.35;4.10;;;;;;;-1.85;68.12;96635.50;5011177;28;20092;-69
2024/01/30 04:07:46;;;;;;;6.15;3.78;;;;;;;-1.78;67.40;96617.63;4993395;28;20080;-69
2024/01/30 04:10:12;;;;;;;6.85;4.18;;;;;;;-1.70;66.60;96618.41;4977140;28;20034;-69
2024/01/30 04:12:37;;;;;;;6.03;3.38;;;;;;;-1.65;66.85;96620.09;4993315;28;20036;-69
2024/01/30 04:15:03;;;;;;;5.43;3.40;;;;;;;-1.43;67.05;96625.03;5011813;28;20038;-69
2024/01/30 04:17:29;;;;;;;4.47;3.00;;;;;;;-1.58;67.75;96611.56;5031248;28;20141;-69
2024/01/30 04:19:54;;;;;;;4.82;2.72;;;;;;;-1.49;67.41;96628.47;5000457;28;20108;-69
2024/01/30 04:22:20;;;;;;;5.57;3.22;;;;;;;-1.42;67.10;96625.03;5034523;28;20033;-69
2024/01/30 04:24:45;;;;;;;5.60;3.47;;;;;;;-1.68;67.34;96614.16;5033840;28;20490;-69
2024/01/30 04:27:11;;;;;;;4.50;3.10;;;;;;;-1.97;67.48;96571.03;5009292;28;20041;-69
2024/01/30 04:29:36;;;;;;;5.97;3.53;;;;;;;-1.83;66.76;96617.66;5014948;28;20029;-69
2024/01/30 04:32:02;;;;;;;5.55;3.60;;;;;;;-1.78;67.50;96627.81;4997015;28;20056;-69
2024/01/30 04:34:27;;;;;;;6.05;3.22;;;;;;;-2.09;68.20;96641.56;5014876;28;20546;-69
2024/01/30 04:36:52;;;;;;;5.78;3.85;;;;;;;-2.00;67.95;96643.22;5025383;28;20068;-68
2024/01/30 04:39:18;;;;;;;6.82;4.45;;;;;;;-2.37;68.03;96605.16;4997095;28;20466;-69
2024/01/30 04:41:43;;;;;;;6.55;3.83;;;;;;;-2.21;67.73;96594.94;5004214;28;20025;-69
2024/01/30 04:44:08;;;;;;;4.40;3.00;;;;;;;-2.43;67.80;96599.25;4988444;28;20044;-69
2024/01/30 04:46:34;;;;;;;4.60;2.83;;;;;;;-2.09;66.32;96648.34;4996643;28;20026;-69
2024/01/30 04:48:59;;;;;;;4.43;2.70;;;;;;;-2.19;67.63;96644.16;4999394;28;20506;-69
2024/01/30 04:51:25;;;;;;;5.22;2.90;;;;;;;-2.29;68.05;96628.88;5016264;28;20033;-69
2024/01/30 04:53:50;;;;;;;4.65;2.92;;;;;;;-2.04;67.24;96651.72;4999750;28;20032;-68
2024/01/30 04:56:16;;;;;;;4.47;2.50;;;;;;;-2.30;65.53;96657.75;5032952;28;20418;-68
2024/01/30 04:58:41;;;;;;;4.88;2.53;;;;;;;-2.63;67.08;96634.94;4989877;28;20033;-69
2024/01/30 05:01:07;;;;;;;4.22;2.58;;;;;;;-2.76;67.80;96650.25;5029463;28;20096;-69
2024/01/30 05:03:35;;;;;;;4.03;2.60;;;;;;;-2.74;68.34;96663.78;5020711;28;20531;-69
2024/01/30 05:06:01;;;;;;;3.47;2.38;;;;;;;-2.78;68.40;96657.03;5028362;28;20041;-69
2024/01/30 05:08:26;;;;;;;3.38;2.38;;;;;;;-2.75;68.40;96657.03;5011503;28;20029;-69
2024/01/30 05:10:51;;;;;;;3.60;2.40;;;;;;;-2.88;68.37;96662.97;5025187;28;20036;-68
2024/01/30 05:13:17;;;;;;;3.50;2.50;;;;;;;-3.08;68.78;96646.88;4990448;28;20522;-71
2024/01/30 05:15:43;;;;;;;2.92;1.88;;;;;;;-3.04;68.34;96658.75;5006001;28;20026;-70
2024/01/30 05:18:08;;;;;;;3.65;2.20;;;;;;;-2.96;68.16;96672.31;4996138;28;20041;-70
2024/01/30 05:20:34;;;;;;;4.40;2.22;;;;;;;-2.93;67.73;96667.22;5011743;28;20491;-70
2024/01/30 05:22:59;;;;;;;5.03;2.47;;;;;;;-3.07;67.95;96669.75;4979105;28;20034;-71
2024/01/30 05:25:24;;;;;;;3.35;1.95;;;;;;;-3.09;66.06;96666.38;5018064;28;20034;-70
2024/01/30 05:27:50;;;;;;;4.13;2.03;;;;;;;-3.19;65.85;96659.59;5012717;28;20055;-70
2024/01/30 05:30:15;;;;;;;3.50;2.35;;;;;;;-3.19;65.89;96664.69;5009629;28;20072;-70
2024/01/30 05:32:41;;;;;;;4.05;2.80;;;;;;;-3.22;67.31;96652.81;5008947;28;20030;-70
2024/01/30 05:35:07;;;;;;;3.15;1.98;;;;;;;-3.08;67.41;96677.41;5026001;28;20443;-70
2024/01/30 05:37:33;;;;;;;3.42;1.92;;;;;;;-3.24;68.31;96676.53;5009290;28;20029;-70
2024/01/30 05:39:58;;;;;;;3.45;2.08;;;;;;;-2.99;67.81;96680.78;4995835;28;20436;-70
2024/01/30 05:42:24;;;;;;;3.78;2.17;;;;;;;-2.88;67.31;96678.22;5025616;28;20033;-71
2024/01/30 05:44:50;;;;;;;3.08;1.90;;;;;;;-2.78;67.05;96690.09;4995317;28;20528;-71
2024/01/30 05:47:15;;;;;;;3.22;1.85;;;;;;;-2.74;67.79;96684.16;5005202;28;20499;-70
2024/01/30 05:49:41;;;;;;;4.53;2.60;;;;;;;-2.90;68.03;96674.00;5014636;28;20042;-71
2024/01/30 05:52:06;;;;;;;4.30;2.60;;;;;;;-2.82;67.78;96674.84;4992033;28;20057;-71
2024/01/30 05:54:32;;;;;;;4.50;2.50;;;;;;;-2.91;68.54;96680.78;5013762;28;20040;-70
2024/01/30 05:56:57;;;;;;;5.85;3.40;;;;;;;-2.86;68.89;96675.69;5012099;28;20057;-72
2024/01/30 05:59:22;;;;;;;7.95;3.83;;;;;;;-2.99;69.10;96690.94;5012932;28;20484;-70
2024/01/30 06:01:48;;;;;;;5.57;3.28;;;;;;;-2.98;69.72;96681.63;5000093;28;20037;-70
2024/01/30 06:04:14;;;;;;;13.65;6.15;;;;;;;-3.08;69.58;96663.00;5005965;28;20041;-74
2024/01/30 06:06:39;;;;;;;11.48;6.32;;;;;;;-2.90;68.19;96685.00;4987126;28;20065;-72
2024/01/30 06:09:05;;;;;;;5.70;3.20;;;;;;;-2.79;66.04;96683.31;5013360;28;20038;-71
2024/01/30 06:11:31;;;;;;;6.07;3.83;;;;;;;-2.89;66.60;96663.00;5006868;28;20052;-71
2024/01/30 06:13:56;;;;;;;4.47;2.58;;;;;;;-2.70;65.38;96687.56;5030245;28;20041;-70
2024/01/30 06:16:22;;;;;;;6.25;2.78;;;;;;;-2.67;63.24;96686.69;5011845;28;20478;-70
2024/01/30 06:18:48;;;;;;;4.57;2.88;;;;;;;-2.85;65.35;96634.97;5008196;28;20108;-71
2024/01/30 06:21:13;;;;;;;4.30;2.40;;;;;;;-2.62;65.11;96687.53;5008742;28;20176;-70
2024/01/30 06:23:39;;;;;;;4.85;2.35;;;;;;;-2.59;64.36;96670.59;5013332;28;20025;-70
2024/01/30 06:26:06;;;;;;;4.78;3.15;;;;;;;-2.55;65.69;96672.25;5027370;28;20164;-71
2024/01/30 06:28:31;;;;;;;3.97;2.72;;;;;;;-2.37;65.29;96678.97;5026997;28;20029;-71
2024/01/30 06:30:57;;;;;;;4.07;2.50;;;;;;;-2.27;66.51;96684.91;5008105;28;20045;-70
2024/01/30 06:33:22;;;;;;;3.53;2.17;;;;;;;-2.29;66.62;96672.19;5022445;28;20530;-70
2024/01/30 06:35:48;;;;;;;3.05;1.88;;;;;;;-2.32;65.36;96667.09;4982193;28;20051;-75
2024/01/30 06:38:15;;;;;;;4.20;2.20;;;;;;;-2.11;65.94;96691.66;4980826;28;20099;-70
2024/01/30 06:40:41;;;;;;;3.33;2.00;;;;;;;-2.10;64.96;96677.22;4989167;28;20034;-70
2024/01/30 06:43:07;;;;;;;3.78;2.17;;;;;;;-2.27;65.67;96636.53;4991523;28;20037;-71
2024/01/30 06:45:34;;;;;;;3.33;1.92;;;;;;;-1.85;66.18;96690.69;4990028;28;20052;-70
2024/01/30 06:47:59;;;;;;;3.72;2.33;;;;;;;-1.89;63.62;96692.44;4970267;28;20034;-71
2024/01/30 06:50:25;;;;;;;3.17;2.28;;;;;;;-1.84;64.88;96695.81;4975455;28;20031;-70
2024/01/30 06:52:50;;;;;;;4.20;2.22;;;;;;;-1.88;63.13;96696.66;4992083;28;20037;-69
2024/01/30 06:55:16;;;;;;;5.35;3.28;;;;;;;-1.92;65.07;96661.88;4990927;28;20038;-69
2024/01/30 06:57:41;;;;;;;7.88;3.67;;;;;;;-1.67;65.72;96694.84;4971895;28;20027;-69
2024/01/30 07:00:07;;;;;;;4.32;2.70;;;;;;;-1.81;65.47;96695.78;4969594;28;20467;-69
2024/01/30 07:02:33;;;;;;;3.92;2.47;;;;;;;-1.94;64.26;96686.50;4968877;28;20031;-70
2024/01/30 07:04:58;;;;;;;4.75;2.50;;;;;;;-1.89;65.38;96694.97;4969314;28;20031;-70
2024/01/30 07:07:23;;;;;;;4.22;1.88;;;;;;;-1.87;63.94;96694.94;4985592;28;20027;-69
2024/01/30 07:09:52;;;;;;;4.07;2.80;;;;;;;-1.83;63.34;96694.94;4988838;28;20089;-69
2024/01/30 07:12:17;;;;;;;3.33;2.20;;;;;;;-2.02;63.28;96655.13;4988507;28;20029;-70
2024/01/30 07:14:43;;;;;;;2.72;1.85;;;;;;;-1.71;60.81;96693.19;4974173;28;20030;-70
2024/01/30 07:17:08;;;;;;;3.33;2.08;;;;;;;-1.68;61.43;96678.72;4990619;28;20030;-70
2024/01/30 07:19:34;;;;;;;3.60;2.00;;;;;;;-1.49;57.42;96676.06;4974450;28;20027;-70
2024/01/30 07:22:00;;;;;;;3.75;2.10;;;;;;;-1.50;61.29;96679.50;4990496;28;20034;-70
2024/01/30 07:24:26;;;;;;;2.53;1.77;;;;;;;-1.58;57.51;96687.19;4974419;28;20065;-70
2024/01/30 07:26:52;;;;;;;2.35;1.63;;;;;;;-1.82;59.94;96683.88;4990090;28;20098;-70
2024/01/30 07:29:17;;;;;;;2.90;1.88;;;;;;;-1.80;58.95;96679.63;4974168;28;20043;-70
2024/01/30 07:31:43;;;;;;;3.85;2.00;;;;;;;-1.95;58.76;96677.19;4990321;28;20041;-69
2024/01/30 07:34:08;;;;;;;3.22;1.73;;;;;;;-1.49;56.49;96687.13;4996473;28;20068;-70
2024/01/30 07:36:34;;;;;;;5.15;2.80;;;;;;;-1.46;57.10;96684.53;4996994;28;20120;-69
2024/01/30 07:38:59;;;;;;;3.65;2.45;;;;;;;-1.27;57.33;96687.84;5030695;28;20088;-70
2024/01/30 07:41:25;;;;;;;4.55;2.90;;;;;;;-0.69;53.39;96673.78;5013336;28;20042;-70
2024/01/30 07:43:50;;;;;;;3.47;2.22;;;;;;;-0.25;52.11;96672.50;4995987;28;20514;-71
2024/01/30 07:46:16;;;;;;;3.38;2.20;;;;;;;0.47;52.30;96688.63;5009899;28;20042;-71
2024/01/30 07:48:41;;;;;;;4.85;2.42;;;;;;;1.42;49.91;96687.19;5025028;28;20414;-72
2024/01/30 07:51:07;;;;;;;3.92;2.40;;;;;;;2.81;45.59;96686.97;5012767;28;20045;-71
2024/01/30 07:53:32;;;;;;;4.95;2.88;;;;;;;3.91;43.38;96673.13;5030482;28;20471;-73
2024/01/30 07:55:58;;;;;;;3.35;2.20;;;;;;;5.93;39.37;96676.34;5031090;28;20480;-72
2024/01/30 07:58:23;;;;;;;6.13;3.33;;;;;;;6.11;37.75;96685.19;5006621;28;20033;-72
2024/01/30 08:00:49;;;;;;;3.40;2.45;;;;;;;6.82;36.79;96677.41;5012798;28;20400;-71
2024/01/30 08:03:16;;;;;;;3.55;2.70;;;;;;;7.24;35.65;96677.47;5028638;28;20057;-73
2024/01/30 08:05:41;;;;;;;3.20;2.30;;;;;;;8.48;32.63;96671.41;5027460;28;20061;-73
2024/01/30 08:08:07;;;;;;;3.63;2.30;;;;;;;6.46;35.01;96675.31;4993038;28;20061;-73
2024/01/30 08:10:32;;;;;;;3.30;2.50;;;;;;;5.07;37.59;96683.47;5018511;28;20041;-73
2024/01/30 08:12:58;;;;;;;3.30;2.40;;;;;;;4.35;39.54;96676.22;5012556;28;20022;-73
2024/01/30 08:15:23;;;;;;;4.05;2.80;;;;;;;3.72;40.09;96674.50;5030485;28;20034;-72
2024/01/30 08:17:49;;;;;;;4.00;2.78;;;;;;;2.69;42.94;96659.03;5023466;28;20589;-72
2024/01/30 08:20:14;;;;;;;3.83;2.55;;;;;;;2.23;44.12;96678.84;4998245;28;20083;-72
2024/01/30 08:22:42;;;;;;;6.18;2.58;;;;;;;1.39;45.87;96631.72;4996185;28;20032;-73
2024/01/30 08:25:09;;;;;;;4.70;2.80;;;;;;;1.40;46.85;96681.25;5018225;28;20050;-71
2024/01/30 08:27:35;;;;;;;3.95;2.28;;;;;;;1.22;46.26;96670.44;5007816;28;20030;-72
2024/01/30 08:30:01;;;;;;;3.53;2.45;;;;;;;0.96;46.92;96676.00;4996903;28;20026;-72
2024/01/30 08:32:27;;;;;;;3.85;2.50;;;;;;;0.81;48.04;96679.63;4976714;28;20482;-72
2024/01/30 08:34:52;;;;;;;4.47;2.50;;;;;;;1.23;47.29;96682.38;5022905;28;20049;-73
2024/01/30 08:37:18;;;;;;;4.43;2.28;;;;;;;1.32;46.48;96689.91;5030132;28;20022;-72
2024/01/30 08:39:44;;;;;;;4.78;2.55;;;;;;;1.23;47.49;96676.44;5025172;28;20034;-72
2024/01/30 08:42:10;;;;;;;4.80;3.20;;;;;;;0.88;49.51;96670.97;5007910;28;20439;-73
2024/01/30 08:44:35;;;;;;;4.32;2.78;;;;;;;0.80;48.67;96670.25;5025150;28;20112;-73
2024/01/30 08:47:01;;;;;;;4.05;2.63;;;;;;;1.26;47.25;96695.13;4979663;28;20510;-73
2024/01/30 08:49:26;;;;;;;4.68;2.65;;;;;;;1.41;47.90;96693.19;5012185;28;20034;-73
2024/01/30 08:51:52;;;;;;;2.92;2.20;;;;;;;1.21;47.69;96661.06;5012144;28;20435;-73
2024/01/30 08:54:17;;;;;;;3.45;2.20;;;;;;;1.10;48.18;96686.84;5024177;28;20021;-73
2024/01/30 08:56:42;;;;;;;4.75;2.80;;;;;;;1.23;47.78;96694.34;5009580;28;20025;-73
2024/01/30 08:59:08;;;;;;;4.95;3.15;;;;;;;1.33;47.76;96690.75;5005759;28;20026;-73
2024/01/30 09:01:34;;;;;;;5.53;3.05;;;;;;;0.99;48.97;96690.44;5012058;28;20642;-74
2024/01/30 09:03:59;;;;;;;3.80;2.70;;;;;;;1.16;47.41;96691.03;5018961;28;20030;-73
2024/01/30 09:06:27;;;;;;;4.03;2.75;;;;;;;1.19;47.88;96693.53;5031995;28;20021;-73
2024/01/30 09:08:53;;;;;;;6.10;3.03;;;;;;;0.98;47.86;96683.66;5032941;28;20034;-73
2024/01/30 09:11:18;;;;;;;5.30;3.00;;;;;;;0.92;48.54;96687.16;4998949;28;20040;-73
2024/01/30 09:13:44;;;;;;;5.15;3.22;;;;;;;0.79;50.04;96686.47;5032541;28;20028;-73
2024/01/30 09:16:09;;;;;;;7.80;3.40;;;;;;;0.57;49.37;96664.63;5015272;28;20029;-73
2024/01/30 09:18:35;;;;;;;5.63;3.28;;;;;;;0.50;50.41;96680.91;5033036;28;20026;-72
2024/01/30 09:21:00;;;;;;;4.05;2.85;;;;;;;0.38;49.83;96679.38;5032826;28;20028;-72
2024/01/30 09:23:27;;;;;;;5.72;3.45;;;;;;;0.34;49.45;96655.56;5033118;28;20029;-72
2024/01/30 09:25:52;;;;;;;7.18;3.67;;;;;;;0.53;49.76;96683.44;5015022;28;20033;-72
2024/01/30 09:28:18;;;;;;;7.35;3.92;;;;;;;0.74;50.01;96683.13;5013308;28;20411;-72
2024/01/30 09:30:43;;;;;;;6.00;3.50;;;;;;;0.80;49.80;96677.94;5019621;28;20029;-73
2024/01/30 09:33:09;;;;;;;4.70;3.22;;;;;;;0.65;49.25;96670.50;5012116;28;20021;-73
2024/01/30 09:35:35;;;;;;;3.38;2.35;;;;;;;0.73;49.13;96680.63;4998152;28;20523;-73
2024/01/30 09:38:00;;;;;;;4.57;2.67;;;;;;;0.81;48.86;96671.97;4998808;28;20514;-73
2024/01/30 09:40:26;;;;;;;3.72;2.67;;;;;;;0.75;49.25;96683.97;5031785;28;20244;-73
2024/01/30 09:42:51;;;;;;;3.95;2.85;;;;;;;0.70;49.52;96671.28;5014940;28;20030;-73
2024/01/30 09:45:23;;;;;;;3.88;2.72;;;;;;;0.79;48.59;96675.41;5014647;28;20045;-73
2024/01/30 09:47:49;;;;;;;5.20;2.72;;;;;;;0.68;49.26;96667.88;4994987;28;20074;-73
2024/01/30 09:50:14;;;;;;;4.47;2.70;;;;;;;0.76;49.43;96671.19;5006247;28;20436;-73
2024/01/30 09:52:40;;;;;;;4.88;3.10;;;;;;;0.36;50.29;96674.31;5015799;28;20041;-73
2024/01/30 09:55:06;;;;;;;7.88;4.88;;;;;;;0.25;50.89;96659.94;5014620;28;20037;-72
2024/01/30 09:57:31;;;;;;;5.63;3.45;;;;;;;0.10;51.11;96653.34;5006901;28;20032;-72
2024/01/30 09:59:57;;;;;;;8.05;3.50;;;;;;;0.35;50.65;96664.91;5012724;28;20415;-75
2024/01/30 10:02:23;;;;;;;4.28;2.83;;;;;;;0.12;51.26;96651.59;4985136;28;20076;-72
2024/01/30 10:04:49;;;;;;;4.80;3.40;;;;;;;0.20;51.03;96663.41;4987405;28;20056;-72
2024/01/30 10:07:15;;;;;;;4.10;2.40;;;;;;;0.29;50.55;96652.22;5003766;28;20018;-72
2024/01/30 10:09:40;;;;;;;6.60;3.45;;;;;;;0.36;50.08;96641.06;5014716;28;20449;-72
2024/01/30 10:12:06;;;;;;;4.00;2.33;;;;;;;0.35;50.38;96653.84;5014602;28;20032;-72
2024/01/30 10:14:31;;;;;;;3.72;2.53;;;;;;;0.40;50.03;96655.47;4997741;28;20041;-72
2024/01/30 10:16:57;;;;;;;4.07;2.63;;;;;;;0.58;50.73;96651.81;5007042;28;20050;-72
2024/01/30 10:19:23;;;;;;;4.28;2.80;;;;;;;0.74;49.64;96649.88;5020204;28;20072;-72
2024/01/30 10:21:48;;;;;;;4.18;2.70;;;;;;;0.92;49.13;96658.13;4999134;28;20030;-72
2024/01/30 10:24:13;;;;;;;3.65;2.10;;;;;;;1.02;49.07;96639.22;5032123;28;20033;-72
2024/01/30 10:26:39;;;;;;;5.50;3.05;;;;;;;0.77;49.67;96639.59;5014569;28;20026;-72
2024/01/30 10:29:05;;;;;;;3.55;2.25;;;;;;;0.82;50.12;96647.22;4997612;28;20388;-72
2024/01/30 10:31:30;;;;;;;3.75;2.88;;;;;;;0.92;49.44;96653.00;4998106;28;20030;-72
2024/01/30 10:33:56;;;;;;;3.72;2.38;;;;;;;0.79;48.94;96655.78;5013903;28;20044;-72
2024/01/30 10:36:22;;;;;;;4.13;2.78;;;;;;;0.73;49.04;96655.88;5014323;28;20029;-72
2024/01/30 10:38:47;;;;;;;4.60;2.63;;;;;;;0.70;49.43;96653.38;4995390;28;20033;-72
2024/01/30 10:41:14;;;;;;;4.22;2.53;;;;;;;0.66;49.32;96634.63;4992628;28;20033;-72
2024/01/30 10:43:42;;;;;;;4.18;2.92;;;;;;;0.52;50.11;96636.56;4997804;28;20415;-72
2024/01/30 10:46:15;;;;;;;4.88;2.80;;;;;;;0.66;49.42;96649.97;4981641;28;20592;-71
2024/01/30 10:48:48;;;;;;;5.32;2.72;;;;;;;0.72;50.37;96643.94;5013650;28;20043;-72
2024/01/30 10:51:14;;;;;;;4.57;2.65;;;;;;;0.52;50.71;96636.56;5014800;28;20021;-72
2024/01/30 10:53:39;;;;;;;5.05;3.35;;;;;;;0.47;50.82;96645.16;4997413;28;20021;-72
2024/01/30 10:56:05;;;;;;;4.22;3.30;;;;;;;0.50;49.67;96633.16;5031576;28;20060;-72
2024/01/30 10:58:31;;;;;;;3.53;2.50;;;;;;;0.25;51.16;96617.31;4997373;28;20026;-72
2024/01/30 11:00:56;;;;;;;4.32;3.35;;;;;;;0.71;50.59;96636.28;5014044;28;20033;-72
2024/01/30 11:03:22;;;;;;;4.90;3.38;;;;;;;0.54;50.43;96632.28;5031324;28;20021;-72
2024/01/30 11:05:51;;;;;;;8.32;4.28;;;;;;;0.32;51.74;96611.28;4997240;28;20042;-72
2024/01/30 11:08:23;;;;;;;6.65;3.95;;;;;;;0.49;51.50;96628.09;5013728;28;20111;-72
2024/01/30 11:10:49;;;;;;;3.80;2.70;;;;;;;0.62;50.94;96627.88;4994210;28;20034;-72
2024/01/30 11:13:15;;;;;;;12.50;7.35;;;;;;;0.48;51.28;96600.84;4978154;28;20404;-72
2024/01/30 11:15:40;;;;;;;8.32;4.32;;;;;;;0.65;51.10;96581.78;5029683;28;20045;-72
2024/01/30 11:18:06;;;;;;;6.55;4.10;;;;;;;1.00;50.41;96621.31;5031243;28;20040;-72
2024/01/30 11:20:32;;;;;;;3.97;2.47;;;;;;;0.92;50.42;96620.63;5031243;28;20034;-72
2024/01/30 11:22:57;;;;;;;3.80;2.67;;;;;;;0.81;51.00;96610.56;5013615;28;20107;-72
2024/01/30 11:25:23;;;;;;;3.65;2.20;;;;;;;0.92;51.32;96619.75;5012641;28;20491;-72
2024/01/30 11:27:53;;;;;;;8.13;4.10;;;;;;;1.23;50.17;96620.09;5013279;28;20083;-72
2024/01/30 11:30:25;;;;;;;6.63;3.70;;;;;;;0.85;51.09;96624.97;5013482;28;20041;-72